Stella Ada — 9V9082 — position and weather

sailwx.info

Track history (hours):
 
Tides and Currents Weather Stations Pressure Air Temp Water Temp Dewpoint Dewpoint Depression Visibility Wind Speed Wind Dir Waves Ship Positions

Stella Ada

Last reported at 2016-Jul-28 04:04 UTC. Time now 2016-Jul-28 08:32 UTC.
Position N 22°08' E 114°18'.

Length 296 m; draft 8.5 m.

Type: Cargo ship. MMSI: 566089000.

Date/timePositionNaut miles runAvg speedWind from/ knotsBaromVisibWave heightAir tempDewpointWater temp
2016-Jul-28 04:04N 22°08' E 114°18'5 9.2
2016-Jul-28 03:33N 22°05' E 114°22'1 0.6
2016-Jul-28 02:30N 22°04' E 114°22'1 0.7
2016-Jul-28 01:30N 22°05' E 114°22'21110.8
2016-Jul-27 06:04N 23°22' E 117°54'3511.7
2016-Jul-27 03:04N 23°42' E 118°26'811.9
2016-Jul-27 02:24N 23°48' E 118°31'1211.9
2016-Jul-27 01:22N 23°57' E 118°40'1112.1
2016-Jul-27 00:28N 24°05' E 118°48'1112.1
2016-Jul-26 23:33N 24°13' E 118°57'1312.7
2016-Jul-26 22:32N 24°23' E 119°06'1212.1
2016-Jul-26 21:31N 24°32' E 119°15'3311.3
2016-Jul-26 18:33N 24°57' E 119°40'  
2016-Jul-24 13:32N 34°20' E 122°59'1913.2
2016-Jul-24 12:04N 34°40' E 122°58'712.8
2016-Jul-24 11:32N 34°46' E 122°57'10212.6
2016-Jul-24 03:26N 36°29' E 122°53'1212.8
2016-Jul-24 02:30N 36°41' E 122°54'1212.1
2016-Jul-24 01:33N 36°52' E 122°55'1211.5
2016-Jul-24 00:33N 37°04' E 122°57'2311.7
2016-Jul-23 22:33N 37°27' E 122°58'1312.2
2016-Jul-23 21:31N 37°38' E 122°51'1414.0
2016-Jul-23 20:32N 37°46' E 122°37'1414.4
2016-Jul-23 19:33N 37°52' E 122°21'1514.3
2016-Jul-23 18:30N 38°00' E 122°05'2813.8
2016-Jul-23 16:30N 38°14' E 121°34'1314.0
2016-Jul-23 15:34N 38°21' E 121°20'1514.0
2016-Jul-23 14:31N 38°28' E 121°04'1313.6
2016-Jul-23 13:33N 38°33' E 120°48'1514.1
2016-Jul-23 12:31N 38°35' E 120°30'  
Track history (hours):
 
Tides and Currents Weather Stations Pressure Air Temp Water Temp Dewpoint Dewpoint Depression Visibility Wind Speed Wind Dir Waves Ship Positions

Stella Ada

Last reported at 2016-Jul-28 04:04 UTC. Time now 2016-Jul-28 08:32 UTC.
Position N 22°08' E 114°18'.

Length 296 m; draft 8.5 m.

Type: Cargo ship. MMSI: 566089000.

Date/timePositionNaut miles runAvg speedWind from/ knotsBaromVisibWave heightAir tempDewpointWater temp
2016-Jul-28 04:04N 22°08' E 114°18'5 9.2
2016-Jul-28 03:33N 22°05' E 114°22'1 0.6
2016-Jul-28 02:30N 22°04' E 114°22'1 0.7
2016-Jul-28 01:30N 22°05' E 114°22'21110.8
2016-Jul-27 06:04N 23°22' E 117°54'3511.7
2016-Jul-27 03:04N 23°42' E 118°26'811.9
2016-Jul-27 02:24N 23°48' E 118°31'1211.9
2016-Jul-27 01:22N 23°57' E 118°40'1112.1
2016-Jul-27 00:28N 24°05' E 118°48'1112.1
2016-Jul-26 23:33N 24°13' E 118°57'1312.7
2016-Jul-26 22:32N 24°23' E 119°06'1212.1
2016-Jul-26 21:31N 24°32' E 119°15'3311.3
2016-Jul-26 18:33N 24°57' E 119°40'  
2016-Jul-24 13:32N 34°20' E 122°59'1913.2
2016-Jul-24 12:04N 34°40' E 122°58'712.8
2016-Jul-24 11:32N 34°46' E 122°57'10212.6
2016-Jul-24 03:26N 36°29' E 122°53'1212.8
2016-Jul-24 02:30N 36°41' E 122°54'1212.1
2016-Jul-24 01:33N 36°52' E 122°55'1211.5
2016-Jul-24 00:33N 37°04' E 122°57'2311.7
2016-Jul-23 22:33N 37°27' E 122°58'1312.2
2016-Jul-23 21:31N 37°38' E 122°51'1414.0
2016-Jul-23 20:32N 37°46' E 122°37'1414.4
2016-Jul-23 19:33N 37°52' E 122°21'1514.3
2016-Jul-23 18:30N 38°00' E 122°05'2813.8
2016-Jul-23 16:30N 38°14' E 121°34'1314.0
2016-Jul-23 15:34N 38°21' E 121°20'1514.0
2016-Jul-23 14:31N 38°28' E 121°04'1313.6
2016-Jul-23 13:33N 38°33' E 120°48'1514.1
2016-Jul-23 12:31N 38°35' E 120°30'  

Dump ship's entire track history